Time;durP1;ratioP1;P1;durP2;ratioP2;P2;SDS_P1;SDS_P2;PMS_P1;PMS_P2;Temp;Humidity;BMP_temperature;BMP_pressure;BME280_temperature;BME280_humidity;BME280_pressure;Samples;Min_cycle;Max_cycle;Signal;HPM_P1;HPM_P2
2022/09/10 00:00:53;;;;;;;;;1.33;1.33;;;;;17.97;64.40;100630.00;4955100;28;45385;-63
2022/09/10 00:03:19;;;;;;;;;2.33;2.33;;;;;17.99;64.76;100636.06;4958400;28;45478;-61
2022/09/10 00:05:45;;;;;;;;;1.67;1.67;;;;;17.97;64.53;100636.16;4958136;28;45846;-61
2022/09/10 00:08:11;;;;;;;;;2.00;2.00;;;;;17.95;64.66;100631.91;4958153;28;45406;-61
2022/09/10 00:10:38;;;;;;;;;1.33;1.33;;;;;17.91;64.91;100639.22;4958239;28;45506;-60
2022/09/10 00:13:04;;;;;;;;;3.33;1.00;;;;;17.92;64.93;100645.41;4958257;28;45430;-63
2022/09/10 00:15:29;;;;;;;;;1.00;1.00;;;;;17.81;64.94;100624.81;4957672;28;46006;-60
2022/09/10 00:17:55;;;;;;;;;2.00;2.00;;;;;17.78;65.01;100639.13;4957378;28;45382;-60
2022/09/10 00:20:20;;;;;;;;;1.67;1.67;;;;;17.71;65.75;100637.84;4958049;28;45516;-62
2022/09/10 00:22:47;;;;;;;;;1.00;1.00;;;;;17.72;65.28;100634.22;4956703;28;45425;-60
2022/09/10 00:25:14;;;;;;;;;3.00;3.00;;;;;17.71;65.25;100635.19;4947591;28;46154;-63
2022/09/10 00:27:39;;;;;;;;;2.00;2.00;;;;;17.75;65.48;100630.50;4958766;28;45458;-62
2022/09/10 00:30:05;;;;;;;;;3.67;0.67;;;;;17.75;65.39;100631.34;4958069;28;45389;-63
2022/09/10 00:32:31;;;;;;;;;3.00;3.00;;;;;17.78;65.07;100627.66;4958453;28;45440;-61
2022/09/10 00:34:57;;;;;;;;;3.67;2.67;;;;;17.75;65.12;100627.84;4958253;28;45775;-63
2022/09/10 00:37:22;;;;;;;;;1.00;1.00;;;;;17.65;65.32;100623.13;4958199;28;45423;-60
2022/09/10 00:39:48;;;;;;;;;2.00;1.00;;;;;17.69;64.95;100610.47;4958243;28;45431;-62
2022/09/10 00:42:13;;;;;;;;;4.00;3.00;;;;;17.67;65.24;100628.34;4943089;28;45423;-62
2022/09/10 00:44:38;;;;;;;;;2.33;2.33;;;;;17.67;64.98;100618.53;4938725;28;45469;-59
2022/09/10 00:47:16;;;;;;;;;3.00;3.00;;;;;17.62;65.26;100630.44;4938816;28;45502;-60
2022/09/10 00:49:47;;;;;;;;;2.00;2.00;;;;;17.61;65.32;100615.44;4938795;28;45421;-60
2022/09/10 00:52:13;;;;;;;;;1.00;1.00;;;;;17.64;65.71;100612.59;4921458;28;45483;-63
2022/09/10 00:54:41;;;;;;;;;1.00;1.00;;;;;17.67;65.30;100612.38;4938391;28;45509;-62
2022/09/10 00:57:11;;;;;;;;;2.00;2.00;;;;;17.69;65.11;100607.81;4940764;28;45482;-62
2022/09/10 00:59:39;;;;;;;;;2.00;2.00;;;;;17.67;65.30;100615.88;4957686;28;45465;-63
2022/09/10 01:02:05;;;;;;;;;2.33;2.33;;;;;17.67;65.46;100604.41;4957514;28;45415;-63
2022/09/10 01:04:31;;;;;;;;;2.00;2.00;;;;;17.68;65.41;100614.09;4956052;28;45439;-62
2022/09/10 01:06:57;;;;;;;;;2.00;2.00;;;;;17.65;65.66;100614.28;4954798;28;45458;-63
2022/09/10 01:09:24;;;;;;;;;4.67;3.00;;;;;17.63;65.49;100621.53;4944104;28;45490;-62
2022/09/10 01:12:18;;;;;;;;;2.00;2.00;;;;;17.69;65.75;100628.25;4957270;28;45514;-61
2022/09/10 01:15:02;;;;;;;;;2.00;2.00;;;;;17.71;65.42;100621.88;4939665;28;46673;-62
2022/09/10 01:17:41;;;;;;;;;2.67;1.67;;;;;17.69;65.60;100606.97;4956999;28;45413;-60
2022/09/10 01:20:23;;;;;;;;;1.67;1.67;;;;;17.73;65.55;100611.13;4956035;28;45442;-63
2022/09/10 01:22:51;;;;;;;;;2.00;2.00;;;;;17.72;65.50;100606.78;4957109;28;45565;-62
2022/09/10 01:25:22;;;;;;;;;3.00;1.33;;;;;17.68;65.91;100611.44;4956833;28;45486;-63
2022/09/10 01:27:51;;;;;;;;;2.67;2.00;;;;;17.72;65.43;100610.28;4957573;28;45447;-63
2022/09/10 01:30:21;;;;;;;;;2.00;2.00;;;;;17.65;66.15;100619.59;4955961;28;45596;-63
2022/09/10 01:33:05;;;;;;;;;2.67;1.00;;;;;17.60;65.93;100616.41;4956225;28;45485;-61
2022/09/10 01:35:40;;;;;;;;;3.00;3.00;;;;;17.65;66.08;100625.78;4956652;28;46215;-60
2022/09/10 01:38:11;;;;;;;;;2.00;2.00;;;;;17.65;65.75;100619.59;4956827;28;45472;-60
2022/09/10 01:40:37;;;;;;;;;4.00;1.67;;;;;17.62;65.64;100620.69;4956809;28;45395;-62
2022/09/10 01:43:08;;;;;;;;;3.00;3.00;;;;;17.57;65.70;100627.22;4956802;28;45609;-60
2022/09/10 01:46:07;;;;;;;;;2.00;2.00;;;;;17.54;66.03;100624.75;4956734;28;45394;-62
2022/09/10 01:49:17;;;;;;;;;3.00;2.00;;;;;17.52;66.03;100626.69;4955447;28;45573;-61
2022/09/10 01:52:28;;;;;;;;;2.00;2.00;;;;;17.55;66.04;100619.34;4956445;28;45456;-61
2022/09/10 01:55:12;;;;;;;;;2.00;2.00;;;;;17.57;65.73;100622.78;4941970;28;45559;-59
2022/09/10 01:57:54;;;;;;;;;2.00;2.00;;;;;17.52;65.33;100616.06;4956429;28;46109;-62
2022/09/10 02:00:23;;;;;;;;;1.33;1.33;;;;;17.49;65.64;100613.56;4956423;28;45441;-62
2022/09/10 02:03:12;;;;;;;;;2.00;2.00;;;;;17.40;65.97;100622.97;4956334;28;45528;-62
2022/09/10 02:05:40;;;;;;;;;3.67;3.67;;;;;17.43;66.41;100625.44;4955603;28;45578;-63
2022/09/10 02:08:16;;;;;;;;;2.33;2.00;;;;;17.48;65.78;100622.50;4956031;28;45355;-60
2022/09/10 02:10:53;;;;;;;;;3.67;2.33;;;;;17.47;65.55;100626.97;4972966;28;45477;-63
2022/09/10 02:13:19;;;;;;;;;2.00;2.00;;;;;17.52;66.23;100627.53;4967023;28;45546;-62
2022/09/10 02:15:48;;;;;;;;;2.67;2.67;;;;;17.53;65.52;100615.09;4956691;28;45490;-60
2022/09/10 02:18:14;;;;;;;;;4.00;2.67;;;;;17.52;66.07;100624.03;4957480;28;46088;-62
2022/09/10 02:20:40;;;;;;;;;1.00;1.00;;;;;17.50;65.74;100618.78;4958509;28;45406;-62
2022/09/10 02:23:06;;;;;;;;;1.33;1.00;;;;;17.47;66.34;100620.81;4975665;28;45322;-59
2022/09/10 02:25:36;;;;;;;;;2.00;2.00;;;;;17.42;66.21;100619.28;4958818;28;45687;-59
2022/09/10 02:28:03;;;;;;;;;3.00;3.00;;;;;17.46;66.00;100622.59;4975846;28;45400;-61
2022/09/10 02:30:28;;;;;;;;;2.67;1.00;;;;;17.32;65.65;100588.91;4973516;28;45433;-62
2022/09/10 02:32:53;;;;;;;;;4.00;3.00;;;;;17.42;65.87;100619.28;4955611;28;45426;-63
2022/09/10 02:35:19;;;;;;;;;3.00;2.00;;;;;17.44;66.04;100622.69;4968196;28;45478;-61
2022/09/10 02:37:44;;;;;;;;;1.00;1.00;;;;;17.43;65.95;100620.97;4975472;28;45434;-63
2022/09/10 02:40:10;;;;;;;;;3.00;2.00;;;;;17.42;66.14;100627.25;4959057;28;48100;-63
2022/09/10 02:42:37;;;;;;;;;1.33;1.33;;;;;17.34;66.13;100610.09;4978069;28;45652;-59
2022/09/10 02:45:03;;;;;;;;;3.33;2.00;;;;;17.43;65.60;100626.28;4979241;28;45502;-62
2022/09/10 02:47:29;;;;;;;;;3.00;3.00;;;;;17.42;66.02;100619.28;4973308;28;46323;-62
2022/09/10 02:49:54;;;;;;;;;2.00;2.00;;;;;17.35;66.67;100622.41;4966672;28;45503;-60
2022/09/10 02:52:20;;;;;;;;;3.00;3.00;;;;;17.37;66.18;100616.06;4967669;28;45369;-62
2022/09/10 02:54:46;;;;;;;;;3.00;2.00;;;;;17.40;66.31;100615.84;4970517;28;45453;-62
2022/09/10 02:57:11;;;;;;;;;3.00;3.00;;;;;17.49;65.69;100621.53;4960943;28;45592;-63
2022/09/10 02:59:36;;;;;;;;;1.00;1.00;;;;;17.48;65.61;100619.84;4976513;28;45464;-63
2022/09/10 03:02:02;;;;;;;;;3.33;3.33;;;;;17.42;65.52;100619.28;4942850;28;45591;-61
2022/09/10 03:04:27;;;;;;;;;4.00;2.33;;;;;17.52;65.48;100634.66;4960191;28;45489;-60
2022/09/10 03:06:53;;;;;;;;;2.33;2.33;;;;;17.54;65.51;100636.25;4973802;28;45560;-61
2022/09/10 03:09:19;;;;;;;;;1.67;1.33;;;;;17.57;65.67;100632.53;4978744;28;45354;-62
2022/09/10 03:11:45;;;;;;;;;1.33;1.00;;;;;17.54;65.58;100630.94;4974638;28;45382;-64
2022/09/10 03:14:11;;;;;;;;;4.00;2.33;;;;;17.59;65.30;100641.28;4958146;28;45345;-62
2022/09/10 03:16:38;;;;;;;;;2.67;1.67;;;;;17.53;65.70;100631.03;4960067;28;46229;-60
2022/09/10 03:19:04;;;;;;;;;2.33;2.00;;;;;17.50;65.29;100618.78;4957994;28;45533;-63
2022/09/10 03:21:29;;;;;;;;;3.00;2.00;;;;;17.60;65.08;100635.03;4958271;28;45441;-62
2022/09/10 03:23:55;;;;;;;;;2.33;1.67;;;;;17.55;65.02;100623.81;4964122;28;45490;-60
2022/09/10 03:26:21;;;;;;;;;4.00;4.00;;;;;17.57;65.56;100627.22;4978112;28;45627;-59
2022/09/10 03:28:47;;;;;;;;;3.00;3.00;;;;;17.52;65.38;100619.56;4978036;28;45484;-61
2022/09/10 03:31:13;;;;;;;;;6.00;4.00;;;;;17.60;65.39;100629.72;4962641;28;45581;-59
2022/09/10 03:33:39;;;;;;;;;2.00;1.67;;;;;17.59;65.37;100627.97;4968996;28;45372;-59
2022/09/10 03:36:06;;;;;;;;;4.00;3.00;;;;;17.59;65.07;100633.28;4941097;28;45559;-59
2022/09/10 03:38:31;;;;;;;;;3.00;2.33;;;;;17.61;65.03;100634.06;4959992;28;45376;-60
2022/09/10 03:40:57;;;;;;;;;1.00;1.00;;;;;17.59;65.27;100628.81;4958973;28;45909;-60
2022/09/10 03:43:22;;;;;;;;;2.00;2.00;;;;;17.55;65.21;100631.81;4959001;28;45561;-62
2022/09/10 03:45:50;;;;;;;;;1.33;1.33;;;;;17.54;64.97;100625.59;4966101;28;52893;-60
2022/09/10 03:48:16;;;;;;;;;2.33;2.33;;;;;17.50;65.12;100618.78;4953114;28;45617;-64
2022/09/10 03:50:43;;;;;;;;;4.00;2.67;;;;;17.53;65.25;100641.69;4973447;28;45473;-60
2022/09/10 03:53:12;;;;;;;;;3.00;3.00;;;;;17.54;65.02;100638.91;4961389;28;45390;-63
2022/09/10 03:55:38;;;;;;;;;2.00;1.00;;;;;17.55;64.97;100635.31;4961404;28;45598;-59
2022/09/10 03:58:05;;;;;;;;;2.00;2.00;;;;;17.52;65.30;100632.84;4960589;28;45468;-60
2022/09/10 04:00:31;;;;;;;;;4.00;3.00;;;;;17.51;65.33;100644.41;4978247;28;45466;-61
2022/09/10 04:02:57;;;;;;;;;3.00;2.00;;;;;17.55;65.13;100634.47;4977980;28;45445;-63
2022/09/10 04:05:24;;;;;;;;;3.67;1.33;;;;;17.62;65.03;100630.44;4960530;28;45577;-62
2022/09/10 04:07:50;;;;;;;;;2.67;2.67;;;;;17.58;65.21;100636.91;4974930;28;45550;-61
2022/09/10 04:10:16;;;;;;;;;2.67;2.67;;;;;17.55;65.34;100645.94;4941085;28;45449;-60
2022/09/10 04:12:41;;;;;;;;;2.33;2.00;;;;;17.58;65.02;100642.25;4958438;28;45540;-58
2022/09/10 04:15:07;;;;;;;;;4.00;2.00;;;;;17.63;65.01;100645.47;4958113;28;45829;-62
2022/09/10 04:17:32;;;;;;;;;4.33;3.00;;;;;17.63;64.94;100632.16;4958055;28;45325;-61
2022/09/10 04:19:58;;;;;;;;;4.00;2.67;;;;;17.65;64.86;100646.19;4958578;28;45466;-62
2022/09/10 04:22:23;;;;;;;;;2.00;2.00;;;;;17.66;64.79;100647.91;4958477;28;45663;-59
2022/09/10 04:24:49;;;;;;;;;1.00;1.00;;;;;17.65;64.98;100639.09;4958119;28;45438;-59
2022/09/10 04:27:15;;;;;;;;;3.00;3.00;;;;;17.70;65.11;100638.78;4958246;28;45494;-61
2022/09/10 04:29:41;;;;;;;;;2.00;2.00;;;;;17.64;65.17;100644.50;4958813;28;45538;-60
2022/09/10 04:32:07;;;;;;;;;2.67;2.00;;;;;17.62;65.28;100649.94;4957982;28;45446;-62
2022/09/10 04:34:33;;;;;;;;;2.00;2.00;;;;;17.62;65.10;100649.94;4957889;28;46174;-61
2022/09/10 04:36:58;;;;;;;;;2.67;2.67;;;;;17.66;65.10;100640.78;4957840;28;45502;-61
2022/09/10 04:39:23;;;;;;;;;2.00;2.00;;;;;17.64;65.23;100642.69;4958193;28;45440;-60
2022/09/10 04:41:49;;;;;;;;;5.67;3.00;;;;;17.68;64.52;100646.03;4961772;28;45429;-62
2022/09/10 04:44:14;;;;;;;;;2.00;2.00;;;;;17.57;65.34;100648.50;4974803;28;46270;-62
2022/09/10 04:46:41;;;;;;;;;1.00;1.00;;;;;17.56;65.50;100646.78;4973260;28;45456;-61
2022/09/10 04:49:06;;;;;;;;;1.00;1.00;;;;;17.53;65.80;100644.34;4940851;28;45568;-62
2022/09/10 04:51:32;;;;;;;;;1.00;1.00;;;;;17.62;65.05;100649.06;4957788;28;45427;-60
2022/09/10 04:53:58;;;;;;;;;2.67;2.00;;;;;17.67;65.24;100645.16;4957636;28;45398;-61
2022/09/10 04:56:23;;;;;;;;;2.00;2.00;;;;;17.69;65.11;100653.03;4957893;28;45553;-59
2022/09/10 04:58:49;;;;;;;;;4.67;2.00;;;;;17.73;64.95;100648.38;4961520;28;45375;-61
2022/09/10 05:01:14;;;;;;;;;3.00;3.00;;;;;17.73;64.99;100654.56;4959489;28;47140;-59
2022/09/10 05:03:39;;;;;;;;;3.00;3.00;;;;;17.66;65.14;100655.91;4976489;28;46116;-59
2022/09/10 05:06:05;;;;;;;;;2.00;2.00;;;;;17.65;65.15;100657.72;4977064;28;45373;-59
2022/09/10 05:08:30;;;;;;;;;2.00;2.00;;;;;17.71;64.87;100655.63;4977204;28;45923;-60
2022/09/10 05:10:56;;;;;;;;;2.33;2.33;;;;;17.67;65.07;100660.25;4976728;28;45465;-61
2022/09/10 05:13:23;;;;;;;;;3.00;2.67;;;;;17.69;65.24;100668.16;4976824;28;45513;-62
2022/09/10 05:15:48;;;;;;;;;3.33;3.33;;;;;17.72;65.06;100673.28;4976737;28;45469;-59
2022/09/10 05:18:15;;;;;;;;;2.67;2.00;;;;;17.66;64.93;100670.06;4976936;28;45319;-59
2022/09/10 05:20:42;;;;;;;;;3.00;2.33;;;;;17.71;65.09;100682.22;4957793;28;45366;-60
2022/09/10 05:23:07;;;;;;;;;2.33;2.33;;;;;17.67;65.46;100682.38;4973338;28;47315;-59
2022/09/10 05:25:33;;;;;;;;;1.67;1.67;;;;;17.71;65.22;100690.19;4959530;28;45425;-59
2022/09/10 05:28:00;;;;;;;;;3.00;3.00;;;;;17.66;65.41;100685.16;4966185;28;45457;-60
2022/09/10 05:30:26;;;;;;;;;3.33;3.33;;;;;17.68;65.06;100688.59;4957642;28;45474;-60
2022/09/10 05:32:52;;;;;;;;;2.67;2.67;;;;;17.67;65.45;100692.19;4957475;28;45457;-63
2022/09/10 05:35:17;;;;;;;;;1.00;1.00;;;;;17.65;65.54;100691.41;4957529;28;45447;-61
2022/09/10 05:37:43;;;;;;;;;1.67;1.00;;;;;17.64;65.28;100677.25;4957579;28;45933;-61
2022/09/10 05:40:12;;;;;;;;;3.67;3.67;;;;;17.71;65.35;100688.38;4968996;28;45409;-60
2022/09/10 05:42:38;;;;;;;;;4.33;2.67;;;;;17.57;65.16;100683.94;4976895;28;45394;-63
2022/09/10 05:45:03;;;;;;;;;1.33;1.33;;;;;17.65;65.30;100683.44;4976824;28;45427;-60
2022/09/10 05:47:29;;;;;;;;;2.33;2.33;;;;;17.63;65.20;100680.88;4976897;28;45457;-64
2022/09/10 05:49:55;;;;;;;;;2.00;2.00;;;;;17.62;65.25;100697.81;4959112;28;45472;-62
2022/09/10 05:52:20;;;;;;;;;3.33;3.33;;;;;17.66;65.18;100698.47;4976424;28;46915;-63
2022/09/10 05:54:46;;;;;;;;;2.67;2.67;;;;;17.71;65.03;100700.84;4976474;28;45537;-60
2022/09/10 05:57:11;;;;;;;;;4.00;2.00;;;;;17.64;65.36;100701.19;4976566;28;45512;-62
2022/09/10 05:59:36;;;;;;;;;3.33;3.00;;;;;17.66;65.33;100707.28;4976654;28;45439;-60
2022/09/10 06:02:02;;;;;;;;;4.00;3.00;;;;;17.67;64.98;100703.66;4976517;28;45561;-62
2022/09/10 06:04:27;;;;;;;;;2.67;2.67;;;;;17.66;65.10;100712.59;4976772;28;45404;-62
2022/09/10 06:06:53;;;;;;;;;3.00;2.33;;;;;17.64;65.14;100705.66;4976459;28;45448;-61
2022/09/10 06:09:19;;;;;;;;;2.67;2.67;;;;;17.66;65.29;100714.41;4976394;28;45512;-59
2022/09/10 06:11:47;;;;;;;;;2.67;2.33;;;;;17.65;65.50;100710.91;4958724;28;46198;-63
2022/09/10 06:14:13;;;;;;;;;2.00;2.00;;;;;17.67;65.16;100714.31;4958706;28;45323;-62
2022/09/10 06:16:39;;;;;;;;;2.33;2.33;;;;;17.70;65.48;100723.91;4963973;28;45479;-61
2022/09/10 06:19:04;;;;;;;;;2.00;2.00;;;;;17.64;65.73;100717.16;4956973;28;45561;-63
2022/09/10 06:21:29;;;;;;;;;2.00;2.00;;;;;17.72;65.26;100732.66;4956870;28;46105;-63
2022/09/10 06:23:55;;;;;;;;;2.33;2.00;;;;;17.73;65.44;100738.81;4956776;28;45459;-62
2022/09/10 06:26:20;;;;;;;;;5.33;2.00;;;;;17.73;65.14;100739.69;4956886;28;45781;-62
2022/09/10 06:28:47;;;;;;;;;4.00;2.00;;;;;17.75;65.05;100742.25;4959085;28;45410;-63
2022/09/10 06:31:18;;;;;;;;;3.00;3.00;;;;;17.76;65.10;100739.50;4964878;28;46207;-61
2022/09/10 06:33:46;;;;;;;;;1.00;1.00;;;;;17.81;64.88;100741.88;4976225;28;45441;-63
2022/09/10 06:36:12;;;;;;;;;3.67;2.67;;;;;17.75;64.98;100732.44;4970768;28;45465;-59
2022/09/10 06:38:38;;;;;;;;;2.00;2.00;;;;;17.67;65.65;100732.06;4975002;28;45528;-62
2022/09/10 06:41:06;;;;;;;;;2.00;2.00;;;;;17.68;65.46;100747.09;4970154;28;46193;-61
2022/09/10 06:43:35;;;;;;;;;3.67;2.00;;;;;17.68;65.17;100739.13;4966813;28;45380;-62
2022/09/10 06:46:01;;;;;;;;;4.00;4.00;;;;;17.65;65.26;100740.16;4974678;28;45487;-69
2022/09/10 06:48:26;;;;;;;;;4.00;4.00;;;;;17.66;65.12;100749.84;4975214;28;45515;-59
2022/09/10 06:50:57;;;;;;;;;5.33;5.33;;;;;17.67;65.59;100759.53;4957021;28;45610;-59
2022/09/10 06:53:24;;;;;;;;;2.00;2.00;;;;;17.74;65.12;100752.03;4973404;28;45476;-59
2022/09/10 06:55:51;;;;;;;;;3.00;3.00;;;;;17.71;65.56;100754.03;4975599;28;45405;-59
2022/09/10 06:58:18;;;;;;;;;2.33;2.33;;;;;17.76;65.58;100750.13;4975225;28;45560;-60
2022/09/10 07:00:47;;;;;;;;;2.00;2.00;;;;;17.75;65.24;100751.06;4975370;28;45972;-59
2022/09/10 07:03:14;;;;;;;;;3.00;3.00;;;;;17.82;65.25;100755.09;4975244;28;45393;-59
2022/09/10 07:05:40;;;;;;;;;2.00;2.00;;;;;17.87;65.11;100760.13;4958073;28;45487;-59
2022/09/10 07:08:06;;;;;;;;;3.33;3.33;;;;;17.84;65.04;100755.00;4952741;28;45573;-60
2022/09/10 07:10:31;;;;;;;;;2.33;2.00;;;;;17.87;65.17;100758.31;4972921;28;45607;-59
2022/09/10 07:12:57;;;;;;;;;2.33;2.00;;;;;17.93;64.87;100767.72;4973515;28;45499;-63
2022/09/10 07:15:22;;;;;;;;;2.00;2.00;;;;;17.96;64.14;100772.00;4957731;28;45419;-61
2022/09/10 07:17:47;;;;;;;;;2.00;2.00;;;;;17.93;64.88;100775.69;4964091;28;45564;-60
2022/09/10 07:20:13;;;;;;;;;2.00;2.00;;;;;17.95;64.80;100771.16;4956804;28;45553;-64
2022/09/10 07:22:42;;;;;;;;;2.33;2.33;;;;;17.88;64.36;100759.16;4973097;28;45528;-67
2022/09/10 07:25:07;;;;;;;;;4.00;2.33;;;;;17.88;64.62;100762.69;4969613;28;45429;-75
2022/09/10 07:27:32;;;;;;;;;1.00;1.00;;;;;17.98;64.63;100776.28;4953546;28;45386;-70
2022/09/10 07:29:58;;;;;;;;;3.33;3.33;;;;;17.99;64.53;100782.44;4979137;28;45432;-72
2022/09/10 07:32:23;;;;;;;;;5.00;3.33;;;;;17.99;64.85;100782.44;4958562;28;45586;-67
2022/09/10 07:34:48;;;;;;;;;2.00;2.00;;;;;18.01;64.36;100780.53;4976910;28;45550;-60
2022/09/10 07:37:17;;;;;;;;;3.00;3.00;;;;;18.05;64.75;100779.38;4976189;28;45626;-66
2022/09/10 07:39:42;;;;;;;;;1.33;1.33;;;;;18.10;64.50;100785.25;4962172;28;47297;-67
2022/09/10 07:42:09;;;;;;;;;4.00;3.00;;;;;18.11;64.55;100781.66;4975609;28;45461;-70
2022/09/10 07:44:34;;;;;;;;;2.00;2.00;;;;;18.09;64.38;100775.59;4968110;28;45399;-68
2022/09/10 07:47:02;;;;;;;;;4.00;3.67;;;;;18.17;64.36;100775.09;4954991;28;45601;-71
2022/09/10 07:49:28;;;;;;;;;2.00;2.00;;;;;18.12;64.11;100778.03;4962710;28;46217;-73
2022/09/10 07:51:53;;;;;;;;;4.00;3.00;;;;;18.03;64.53;100773.31;4973137;28;45681;-69
2022/09/10 07:54:19;;;;;;;;;2.67;2.67;;;;;18.10;64.16;100794.09;4959059;28;45483;-64
2022/09/10 07:56:44;;;;;;;;;5.00;3.00;;;;;18.07;64.73;100802.28;4963649;28;45468;-60
2022/09/10 07:59:11;;;;;;;;;7.00;3.00;;;;;18.07;64.12;100798.78;4962627;28;45509;-66
2022/09/10 08:01:37;;;;;;;;;1.33;1.33;;;;;18.00;64.63;100800.09;4973479;28;45493;-60
2022/09/10 08:04:02;;;;;;;;;1.33;1.33;;;;;18.07;64.58;100812.94;4966650;28;45498;-60
2022/09/10 08:06:28;;;;;;;;;2.33;2.33;;;;;18.07;64.39;100810.28;4958932;28;45513;-61
2022/09/10 08:08:54;;;;;;;;;2.00;2.00;;;;;18.07;64.48;100810.28;4963308;28;45972;-61
2022/09/10 08:11:20;;;;;;;;;2.67;2.67;;;;;18.07;64.59;100809.41;4957582;28;45564;-60
2022/09/10 08:13:47;;;;;;;;;2.33;2.33;;;;;18.11;64.68;100813.63;4958604;28;45471;-60
2022/09/10 08:16:16;;;;;;;;;6.67;4.33;;;;;18.17;64.41;100818.53;4958596;28;45521;-61
2022/09/10 08:18:46;;;;;;;;;2.67;2.67;;;;;18.12;64.30;100817.97;4958306;28;45512;-61
2022/09/10 08:21:12;;;;;;;;;3.00;2.33;;;;;18.03;64.43;100814.09;4958549;28;45430;-61
2022/09/10 08:23:38;;;;;;;;;2.33;2.33;;;;;18.08;64.90;100825.31;4958824;28;45546;-61
2022/09/10 08:26:05;;;;;;;;;5.00;3.33;;;;;18.15;64.50;100825.75;4958573;28;45432;-61
2022/09/10 08:28:30;;;;;;;;;7.33;7.33;;;;;18.19;64.40;100826.41;4959080;28;45386;-61
2022/09/10 08:31:01;;;;;;;;;3.00;3.00;;;;;18.16;64.31;100815.97;4958436;28;45560;-61
2022/09/10 08:33:28;;;;;;;;;2.67;2.67;;;;;18.24;64.44;100819.88;4940934;28;45499;-60
2022/09/10 08:35:58;;;;;;;;;2.00;2.00;;;;;18.26;63.99;100820.59;4940847;28;45474;-61
2022/09/10 08:38:25;;;;;;;;;3.00;3.00;;;;;18.25;64.28;100832.22;4957515;28;45516;-61
2022/09/10 08:40:53;;;;;;;;;4.33;4.33;;;;;18.28;64.35;100829.34;4958235;28;45536;-61
2022/09/10 08:43:46;;;;;;;;;2.00;2.00;;;;;18.24;63.97;100833.19;4958433;28;45462;-61
2022/09/10 08:46:19;;;;;;;;;3.33;3.00;;;;;18.28;64.31;100837.34;4945171;28;45557;-61
2022/09/10 08:48:49;;;;;;;;;2.33;2.00;;;;;18.27;64.30;100834.78;4958061;28;45550;-61
2022/09/10 08:51:26;;;;;;;;;4.00;4.00;;;;;18.25;64.48;100837.53;4972413;28;45543;-61
2022/09/10 08:54:01;;;;;;;;;5.67;3.00;;;;;18.25;64.76;100836.69;4958135;28;45525;-60
2022/09/10 08:56:27;;;;;;;;;4.67;3.00;;;;;18.19;64.69;100848.59;4958064;28;45429;-60
2022/09/10 08:59:12;;;;;;;;;3.00;1.67;;;;;18.23;64.54;100843.91;4957885;28;45443;-60
2022/09/10 09:01:49;;;;;;;;;4.00;3.00;;;;;18.21;64.47;100844.00;4957878;28;45447;-60
2022/09/10 09:04:49;;;;;;;;;4.00;3.00;;;;;18.25;64.76;100842.00;4958111;28;45550;-59
2022/09/10 09:07:18;;;;;;;;;3.67;3.00;;;;;18.30;64.51;100855.91;4957844;28;45430;-60
2022/09/10 09:09:50;;;;;;;;;5.00;5.00;;;;;18.32;64.58;100857.50;4957619;28;45733;-60
2022/09/10 09:12:52;;;;;;;;;3.00;3.00;;;;;18.29;65.11;100855.00;4956857;28;45540;-60
2022/09/10 09:15:20;;;;;;;;;4.67;3.67;;;;;18.24;64.67;100866.91;4956367;28;45450;-62
2022/09/10 09:17:49;;;;;;;;;3.33;3.33;;;;;18.20;65.01;100871.59;4956913;28;45512;-60
2022/09/10 09:20:38;;;;;;;;;4.33;4.00;;;;;18.15;65.13;100868.34;4957264;28;46139;-60
2022/09/10 09:23:03;;;;;;;;;2.00;2.00;;;;;18.13;66.37;100864.91;4956748;28;45327;-60
2022/09/10 09:25:50;;;;;;;;;3.00;3.00;;;;;18.16;65.77;100864.75;4962383;28;45460;-60
2022/09/10 09:28:58;;;;;;;;;3.00;3.00;;;;;18.23;66.15;100871.38;4957089;28;45512;-59
2022/09/10 09:31:29;;;;;;;;;3.33;3.33;;;;;18.26;66.04;100863.19;4878508;29;46024;-59
2022/09/10 09:34:03;;;;;;;;;4.00;3.00;;;;;18.30;65.80;100875.38;4927868;28;45514;-59
2022/09/10 09:36:36;;;;;;;;;5.00;4.00;;;;;18.24;65.99;100873.13;4939959;28;45432;-60
2022/09/10 09:39:13;;;;;;;;;3.67;3.67;;;;;18.22;66.15;100877.69;4939640;28;45537;-61
2022/09/10 09:42:03;;;;;;;;;2.33;2.33;;;;;18.23;66.17;100875.88;4947556;28;46277;-62
2022/09/10 09:45:01;;;;;;;;;3.00;3.00;;;;;18.26;66.24;100878.31;4953470;28;45508;-59
2022/09/10 09:47:26;;;;;;;;;3.00;3.00;;;;;18.28;66.43;100882.59;4957301;28;45460;-59
2022/09/10 09:49:52;;;;;;;;;17.67;15.67;;;;;18.27;67.23;100885.38;4957274;28;45419;-61
2022/09/10 09:52:21;;;;;;;;;4.00;4.00;;;;;18.15;68.16;100878.16;4957276;28;46148;-60
2022/09/10 09:55:03;;;;;;;;;3.33;3.33;;;;;18.27;68.30;100890.72;4957182;28;45481;-60
2022/09/10 09:57:28;;;;;;;;;4.00;2.33;;;;;18.30;67.62;100894.03;4957368;28;45462;-61
2022/09/10 09:59:54;;;;;;;;;4.00;4.00;;;;;18.31;67.34;100893.06;4957227;28;45315;-61
2022/09/10 10:02:22;;;;;;;;;3.33;3.00;;;;;18.29;68.88;100894.94;4957243;28;45457;-60
2022/09/10 10:05:00;;;;;;;;;3.33;3.33;;;;;18.31;67.97;100895.72;4957128;28;45536;-61
2022/09/10 10:07:30;;;;;;;;;4.67;4.67;;;;;18.36;68.26;100899.91;4957069;28;45398;-59
2022/09/10 10:10:00;;;;;;;;;4.00;3.00;;;;;18.33;67.86;100899.16;4957252;28;45458;-61
2022/09/10 10:12:30;;;;;;;;;3.00;3.00;;;;;18.24;68.08;100893.53;4956796;28;45358;-61
2022/09/10 10:14:56;;;;;;;;;4.00;3.00;;;;;18.34;68.13;100902.66;4957133;28;45490;-59
2022/09/10 10:17:34;;;;;;;;;3.67;3.67;;;;;18.36;68.13;100892.78;4956986;28;45452;-60
2022/09/10 10:20:06;;;;;;;;;5.33;3.67;;;;;18.30;67.47;100896.69;4956992;28;45414;-60
2022/09/10 10:22:32;;;;;;;;;3.00;3.00;;;;;18.32;68.13;100897.44;4956770;28;46449;-60
2022/09/10 10:25:02;;;;;;;;;3.67;3.67;;;;;18.28;67.51;100893.25;4956824;28;45431;-61
2022/09/10 10:27:29;;;;;;;;;2.67;2.67;;;;;18.29;68.33;100908.28;4952900;28;45474;-59
2022/09/10 10:30:01;;;;;;;;;2.00;2.00;;;;;18.32;67.42;100907.22;4958067;28;45496;-62
2022/09/10 10:32:37;;;;;;;;;7.33;5.67;;;;;18.37;68.73;100902.47;4956830;28;45422;-61
2022/09/10 10:35:09;;;;;;;;;4.33;4.00;;;;;18.46;67.82;100912.56;4956708;28;45548;-61
2022/09/10 10:37:55;;;;;;;;;5.00;4.00;;;;;18.26;68.40;100884.50;4956360;28;45357;-62
2022/09/10 10:41:03;;;;;;;;;4.67;4.00;;;;;18.33;68.34;100904.47;4956877;28;45482;-62
2022/09/10 10:43:53;;;;;;;;;3.67;3.33;;;;;18.31;67.91;100897.53;4956456;28;46264;-63
2022/09/10 10:46:21;;;;;;;;;5.00;5.00;;;;;18.20;69.01;100906.19;4955033;28;45558;-63
2022/09/10 10:49:06;;;;;;;;;3.67;3.67;;;;;18.25;69.15;100904.09;4956102;28;45454;-64
2022/09/10 10:51:34;;;;;;;;;4.00;4.00;;;;;18.28;69.08;100898.59;4951335;28;45471;-63
2022/09/10 10:54:15;;;;;;;;;3.67;3.67;;;;;18.28;69.42;100905.72;4955630;28;47242;-61
2022/09/10 10:56:50;;;;;;;;;4.33;4.33;;;;;18.24;70.34;100899.75;4937729;28;45446;-65
2022/09/10 10:59:38;;;;;;;;;4.33;4.33;;;;;18.29;69.80;100899.44;4955013;28;45512;-65
2022/09/10 11:02:28;;;;;;;;;3.33;3.33;;;;;18.26;70.59;100896.97;4939438;28;45538;-65
2022/09/10 11:04:57;;;;;;;;;3.00;3.00;;;;;18.24;69.78;100897.06;4958457;28;45779;-61
2022/09/10 11:07:38;;;;;;;;;4.00;4.00;;;;;18.18;70.75;100900.09;4958979;28;45480;-63
2022/09/10 11:10:33;;;;;;;;;7.67;6.00;;;;;18.16;70.08;100896.69;4942025;28;45419;-62
2022/09/10 11:13:26;;;;;;;;;4.00;4.00;;;;;18.21;69.57;100891.06;4958952;28;45628;-63
2022/09/10 11:16:00;;;;;;;;;4.00;4.00;;;;;18.31;69.52;100895.72;4940192;28;45410;-62
2022/09/10 11:18:37;;;;;;;;;5.00;5.00;;;;;18.36;69.57;100889.25;4958958;28;45481;-61
2022/09/10 11:21:28;;;;;;;;;5.00;5.00;;;;;18.31;69.94;100890.41;4959304;28;45490;-60
2022/09/10 11:24:06;;;;;;;;;9.00;7.00;;;;;18.32;70.80;100886.81;4959275;28;45550;-63
2022/09/10 11:26:42;;;;;;;;;4.00;4.00;;;;;18.43;70.23;100891.44;4957438;28;46292;-62
2022/09/10 11:29:19;;;;;;;;;2.00;2.00;;;;;18.48;69.16;100877.81;4941814;28;45418;-61
2022/09/10 11:31:51;;;;;;;;;4.00;4.00;;;;;18.51;69.28;100874.94;4939806;28;45366;-60
2022/09/10 11:34:33;;;;;;;;;4.33;4.00;;;;;18.63;69.27;100878.66;4953052;28;45417;-61
2022/09/10 11:37:25;;;;;;;;;3.67;3.00;;;;;18.69;68.66;100878.25;4956224;28;45428;-60